createdAt,value
2022-12-22T00:02:25.085Z,3.50
2022-12-22T00:05:12.025Z,3.50
2022-12-22T00:07:58.496Z,3.51
2022-12-22T00:10:45.003Z,3.53
2022-12-22T00:13:32.532Z,3.51
2022-12-22T00:16:19.330Z,3.51
2022-12-22T00:19:05.682Z,3.51
2022-12-22T00:21:52.175Z,3.54
2022-12-22T00:24:38.698Z,3.54
2022-12-22T00:27:31.810Z,3.55
2022-12-22T00:30:18.857Z,3.55
2022-12-22T00:33:05.434Z,3.56
2022-12-22T00:35:52.081Z,3.57
2022-12-22T00:38:40.044Z,3.59
2022-12-22T00:41:26.578Z,3.60
2022-12-22T00:44:13.147Z,3.62
2022-12-22T00:47:00.527Z,3.65
2022-12-22T00:49:48.663Z,3.66
2022-12-22T00:52:37.028Z,3.67
2022-12-22T00:55:32.055Z,3.68
2022-12-22T00:58:19.688Z,3.67
2022-12-22T01:01:06.202Z,3.67
2022-12-22T01:03:52.905Z,3.67
2022-12-22T01:06:39.317Z,3.65
2022-12-22T01:09:28.346Z,3.64
2022-12-22T01:12:14.848Z,3.64
2022-12-22T01:15:01.381Z,3.63
2022-12-22T01:17:48.106Z,3.63
2022-12-22T01:20:34.623Z,3.62
2022-12-22T01:23:21.204Z,3.61
2022-12-22T01:26:07.642Z,3.59
2022-12-22T01:28:54.083Z,3.58
2022-12-22T01:31:48.501Z,3.57
2022-12-22T01:34:35.043Z,3.56
2022-12-22T01:37:21.756Z,3.57
2022-12-22T01:40:08.260Z,3.57
2022-12-22T01:42:54.666Z,3.57
2022-12-22T01:45:46.101Z,3.59
2022-12-22T01:48:37.898Z,3.60
2022-12-22T01:51:27.548Z,3.60
2022-12-22T01:54:15.116Z,3.61
2022-12-22T01:57:03.146Z,3.63
2022-12-22T01:59:49.773Z,3.65
2022-12-22T02:02:37.688Z,3.67
2022-12-22T02:05:26.717Z,3.67
2022-12-22T02:08:52.119Z,3.68
2022-12-22T02:11:58.939Z,3.67
2022-12-22T02:15:07.508Z,3.67
2022-12-22T02:17:59.014Z,3.68
2022-12-22T02:20:59.450Z,3.70
2022-12-22T02:24:05.676Z,3.72
2022-12-22T02:26:58.263Z,3.73
2022-12-22T02:29:47.208Z,3.76
2022-12-22T02:32:33.946Z,3.78
2022-12-22T02:35:20.365Z,3.80
2022-12-22T02:38:28.905Z,3.82
2022-12-22T02:41:38.958Z,3.81
2022-12-22T02:45:14.859Z,3.80
2022-12-22T02:48:11.051Z,3.78
2022-12-22T02:51:08.356Z,3.78
2022-12-22T02:53:54.830Z,3.80
2022-12-22T02:56:42.049Z,3.82
2022-12-22T02:59:28.773Z,3.84
2022-12-22T03:02:16.289Z,3.87
2022-12-22T03:05:02.872Z,3.88
2022-12-22T03:07:49.217Z,3.88
2022-12-22T03:10:35.725Z,3.89
2022-12-22T03:13:22.028Z,3.90
2022-12-22T03:16:08.701Z,3.88
2022-12-22T03:18:55.432Z,3.87
2022-12-22T03:21:41.887Z,3.87
2022-12-22T03:24:28.518Z,3.86
2022-12-22T03:26:56.181Z,3.87
2022-12-22T03:29:23.885Z,3.88
2022-12-22T03:31:51.652Z,3.91
2022-12-22T03:34:19.367Z,3.94
2022-12-22T03:36:47.014Z,3.95
2022-12-22T03:39:14.669Z,3.96
2022-12-22T03:42:01.180Z,3.97
2022-12-22T03:44:47.701Z,3.97
2022-12-22T03:47:15.384Z,3.97
2022-12-22T03:49:43.014Z,3.98
2022-12-22T03:52:10.673Z,4.00
2022-12-22T03:54:38.440Z,4.03
2022-12-22T03:57:06.111Z,4.04
2022-12-22T03:59:33.744Z,4.05
2022-12-22T04:02:01.629Z,4.07
2022-12-22T04:04:29.524Z,4.08
2022-12-22T04:06:57.180Z,4.10
2022-12-22T04:09:27.112Z,4.11
2022-12-22T04:12:14.183Z,4.12
2022-12-22T04:14:41.924Z,4.12
2022-12-22T04:17:09.942Z,4.13
2022-12-22T04:19:37.608Z,4.14
2022-12-22T04:22:05.316Z,4.14
2022-12-22T04:24:32.999Z,4.12
2022-12-22T04:27:00.722Z,4.12
2022-12-22T04:29:28.415Z,4.11
2022-12-22T04:31:56.162Z,4.10
2022-12-22T04:34:24.074Z,4.09
2022-12-22T04:36:51.767Z,4.08
2022-12-22T04:39:19.452Z,4.08
2022-12-22T04:41:47.119Z,4.06
2022-12-22T04:44:14.800Z,4.04
2022-12-22T04:46:42.531Z,4.02
2022-12-22T04:49:10.198Z,4.00
2022-12-22T04:51:37.828Z,3.97
2022-12-22T04:54:05.596Z,3.95
2022-12-22T04:56:33.271Z,3.94
2022-12-22T04:59:00.916Z,3.94
2022-12-22T05:01:28.685Z,3.94
2022-12-22T05:03:56.525Z,3.94
2022-12-22T05:06:24.216Z,3.95
2022-12-22T05:08:51.906Z,3.96
2022-12-22T05:11:19.646Z,3.98
2022-12-22T05:13:47.503Z,3.99
2022-12-22T05:16:16.690Z,4.02
2022-12-22T05:18:45.687Z,4.02
2022-12-22T05:21:23.158Z,4.03
2022-12-22T05:23:50.913Z,4.03
2022-12-22T05:26:19.415Z,4.03
2022-12-22T05:28:48.095Z,4.04
2022-12-22T05:31:18.502Z,4.05
2022-12-22T05:33:46.184Z,4.06
2022-12-22T05:36:14.274Z,4.08
2022-12-22T05:38:42.377Z,4.10
2022-12-22T05:41:10.252Z,4.11
2022-12-22T05:43:38.326Z,4.11
2022-12-22T05:46:08.847Z,4.13
2022-12-22T05:48:38.884Z,4.15
2022-12-22T05:51:08.433Z,4.17
2022-12-22T05:53:36.676Z,4.17
2022-12-22T05:56:04.554Z,4.17
2022-12-22T05:58:33.115Z,4.19
2022-12-22T06:01:01.667Z,4.12
2022-12-22T06:03:30.322Z,4.23
2022-12-22T06:05:59.366Z,4.26
2022-12-22T06:08:27.956Z,4.27
2022-12-22T06:10:58.189Z,4.27
2022-12-22T06:13:26.575Z,4.28
2022-12-22T06:15:54.363Z,4.29
2022-12-22T06:18:22.118Z,4.29
2022-12-22T06:20:53.570Z,4.29
2022-12-22T06:23:22.472Z,4.28
2022-12-22T06:25:55.346Z,4.28
2022-12-22T06:28:23.028Z,4.26
2022-12-22T06:30:50.902Z,4.26
2022-12-22T06:33:19.058Z,4.24
2022-12-22T06:35:50.856Z,4.24
2022-12-22T06:38:21.915Z,4.23
2022-12-22T06:40:49.703Z,4.23
2022-12-22T06:43:17.321Z,4.21
2022-12-22T06:45:45.558Z,4.21
2022-12-22T06:48:13.612Z,4.21
2022-12-22T06:50:41.638Z,4.22
2022-12-22T06:53:10.024Z,4.21
2022-12-22T06:55:37.830Z,4.22
2022-12-22T06:58:05.787Z,4.22
2022-12-22T07:00:34.022Z,4.24
2022-12-22T07:03:01.909Z,4.25
2022-12-22T07:05:31.829Z,4.25
2022-12-22T07:08:05.723Z,4.24
2022-12-22T07:10:54.897Z,4.24
2022-12-22T07:13:24.144Z,4.23
2022-12-22T07:15:59.954Z,4.22
2022-12-22T07:18:34.495Z,4.22
2022-12-22T07:21:03.846Z,4.23
2022-12-22T07:23:32.270Z,4.24
2022-12-22T07:26:00.116Z,4.24
2022-12-22T07:28:28.021Z,4.25
2022-12-22T07:30:55.891Z,4.25
2022-12-22T07:33:23.657Z,4.26
2022-12-22T07:36:09.058Z,4.28
2022-12-22T07:38:38.969Z,4.29
2022-12-22T07:41:26.545Z,4.33
2022-12-22T07:43:56.771Z,4.36
2022-12-22T07:46:26.289Z,4.41
2022-12-22T07:49:12.912Z,4.47
2022-12-22T07:51:42.032Z,4.54
2022-12-22T07:54:11.772Z,4.60
2022-12-22T07:56:40.353Z,4.66
2022-12-22T07:59:08.978Z,4.73
2022-12-22T08:01:36.701Z,4.76
2022-12-22T08:04:04.710Z,4.80
2022-12-22T08:06:33.827Z,4.83
2022-12-22T08:09:02.194Z,4.87
2022-12-22T08:11:29.871Z,4.90
2022-12-22T08:14:01.520Z,4.93
2022-12-22T08:16:30.111Z,4.94
2022-12-22T08:18:57.880Z,4.95
2022-12-22T08:21:25.672Z,4.97
2022-12-22T08:23:53.481Z,4.99
2022-12-22T08:26:29.963Z,5.02
2022-12-22T08:29:20.136Z,5.04
2022-12-22T08:31:48.162Z,5.04
2022-12-22T08:34:16.355Z,5.03
2022-12-22T08:36:47.856Z,5.05
2022-12-22T08:39:16.628Z,5.06
2022-12-22T08:41:50.085Z,5.08
2022-12-22T08:44:26.161Z,5.09
2022-12-22T08:46:55.750Z,5.08
2022-12-22T08:49:24.316Z,5.08
2022-12-22T08:51:52.705Z,5.07
2022-12-22T08:54:21.207Z,5.05
2022-12-22T08:56:49.867Z,5.06
2022-12-22T08:59:17.884Z,5.07
2022-12-22T09:01:50.592Z,5.12
2022-12-22T09:04:21.083Z,5.16
2022-12-22T09:06:48.877Z,5.19
2022-12-22T09:09:16.642Z,5.22
2022-12-22T09:11:44.551Z,5.25
2022-12-22T09:14:12.951Z,5.26
2022-12-22T09:16:41.004Z,5.28
2022-12-22T09:19:08.701Z,5.31
2022-12-22T09:21:36.573Z,5.34
2022-12-22T09:24:04.678Z,5.37
2022-12-22T09:26:32.826Z,5.36
2022-12-22T09:29:00.506Z,5.32
2022-12-22T09:31:29.733Z,5.28
2022-12-22T09:33:58.273Z,5.24
2022-12-22T09:36:29.092Z,5.23
2022-12-22T09:38:57.751Z,5.21
2022-12-22T09:41:32.982Z,5.20
2022-12-22T09:44:16.768Z,5.20
2022-12-22T09:46:44.550Z,5.20
2022-12-22T09:49:14.973Z,5.21
2022-12-22T09:51:44.840Z,5.30
2022-12-22T09:54:12.973Z,5.40
2022-12-22T09:56:40.647Z,5.50
2022-12-22T09:59:16.502Z,5.57
2022-12-22T10:01:53.590Z,5.60
2022-12-22T10:04:46.679Z,5.62
2022-12-22T10:07:27.716Z,5.61
2022-12-22T10:09:55.543Z,5.58
2022-12-22T10:12:25.516Z,5.57
2022-12-22T10:14:54.740Z,5.58
2022-12-22T10:17:29.024Z,5.61
2022-12-22T10:20:20.951Z,5.65
2022-12-22T10:22:53.399Z,5.72
2022-12-22T10:25:52.330Z,5.80
2022-12-22T10:28:27.378Z,5.83
2022-12-22T10:31:17.957Z,5.88
2022-12-22T10:33:48.022Z,5.92
2022-12-22T10:36:26.336Z,5.91
2022-12-22T10:38:59.524Z,5.81
2022-12-22T10:41:30.662Z,5.71
2022-12-22T10:44:01.953Z,5.64
2022-12-22T10:46:35.671Z,5.57
2022-12-22T10:49:17.602Z,5.48
2022-12-22T10:51:48.601Z,5.43
2022-12-22T10:54:33.569Z,5.42
2022-12-22T10:57:04.807Z,5.46
2022-12-22T10:59:34.057Z,5.49
2022-12-22T11:02:28.230Z,5.50
2022-12-22T11:05:10.384Z,5.55
2022-12-22T11:07:42.980Z,5.60
2022-12-22T11:10:36.922Z,5.70
2022-12-22T11:13:32.418Z,5.76
2022-12-22T11:16:04.131Z,5.83
2022-12-22T11:18:53.296Z,5.87
2022-12-22T11:21:39.287Z,5.81
2022-12-22T11:24:25.627Z,5.70
2022-12-22T11:27:13.521Z,5.62
2022-12-22T11:30:04.881Z,5.52
2022-12-22T11:32:43.352Z,5.35
2022-12-22T11:35:19.820Z,5.23
2022-12-22T11:37:56.346Z,5.15
2022-12-22T11:40:35.719Z,5.08
2022-12-22T11:43:18.142Z,5.03
2022-12-22T11:45:58.196Z,4.96
2022-12-22T11:48:45.034Z,4.86
2022-12-22T11:51:36.001Z,4.82
2022-12-22T11:54:35.749Z,4.79
2022-12-22T11:57:25.008Z,4.77
2022-12-22T12:00:11.966Z,4.76
2022-12-22T12:02:58.909Z,4.75
2022-12-22T12:05:54.759Z,4.74
2022-12-22T12:08:59.873Z,4.74
2022-12-22T12:11:38.499Z,4.74
2022-12-22T12:14:09.250Z,4.75
2022-12-22T12:16:40.902Z,4.77
2022-12-22T12:19:35.307Z,4.79
2022-12-22T12:22:10.018Z,4.82
2022-12-22T12:24:42.408Z,4.86
2022-12-22T12:27:45.608Z,4.91
2022-12-22T12:30:38.648Z,4.94
2022-12-22T12:33:13.612Z,4.98
2022-12-22T12:35:59.182Z,5.03
2022-12-22T12:39:09.724Z,5.08
2022-12-22T12:41:52.540Z,5.10
2022-12-22T12:44:23.885Z,5.13
2022-12-22T12:46:54.123Z,5.18
2022-12-22T12:49:33.909Z,5.23
2022-12-22T12:52:07.559Z,5.26
2022-12-22T12:54:41.901Z,5.29
2022-12-22T12:57:26.975Z,5.32
2022-12-22T12:59:59.503Z,5.34
2022-12-22T13:02:27.557Z,5.36
2022-12-22T13:05:07.913Z,5.38
2022-12-22T13:08:06.741Z,5.39
2022-12-22T13:10:55.966Z,5.37
2022-12-22T13:13:26.235Z,5.37
2022-12-22T13:16:00.118Z,5.37
2022-12-22T13:18:33.858Z,5.38
2022-12-22T13:21:42.476Z,5.38
2022-12-22T13:24:26.733Z,5.38
2022-12-22T13:26:56.253Z,5.38
2022-12-22T13:29:40.091Z,5.38
2022-12-22T13:32:19.628Z,5.41
2022-12-22T13:37:45.618Z,5.43
2022-12-22T13:40:23.747Z,5.45
2022-12-22T13:43:03.663Z,5.47
2022-12-22T13:45:56.492Z,5.49
2022-12-22T13:48:38.395Z,5.49
2022-12-22T13:51:17.299Z,5.49
2022-12-22T13:56:46.156Z,5.49
2022-12-22T13:59:35.225Z,5.51
2022-12-22T14:02:13.103Z,5.50
2022-12-22T14:04:44.087Z,5.50
2022-12-22T14:07:13.243Z,5.51
2022-12-22T14:09:51.665Z,5.52
2022-12-22T14:12:22.124Z,5.51
2022-12-22T14:14:51.501Z,5.53
2022-12-22T14:17:32.836Z,5.53
2022-12-22T14:20:03.704Z,5.51
2022-12-22T14:22:45.411Z,5.50
2022-12-22T14:25:19.529Z,5.48
2022-12-22T14:27:49.196Z,5.46
2022-12-22T14:30:25.087Z,5.47
2022-12-22T14:32:57.631Z,5.47
2022-12-22T14:35:31.172Z,5.47
2022-12-22T14:38:05.059Z,5.47
2022-12-22T14:40:36.007Z,5.47
2022-12-22T14:43:06.192Z,5.46
2022-12-22T14:45:34.076Z,5.47
2022-12-22T14:48:01.903Z,5.47
2022-12-22T14:50:29.983Z,5.48
2022-12-22T14:52:59.441Z,5.49
2022-12-22T14:55:49.147Z,5.51
2022-12-22T14:58:31.211Z,5.50
2022-12-22T15:01:13.887Z,5.51
2022-12-22T15:03:42.057Z,5.52
2022-12-22T15:06:24.396Z,5.53
2022-12-22T15:08:53.571Z,5.55
2022-12-22T15:11:23.848Z,5.57
2022-12-22T15:13:51.834Z,5.60
2022-12-22T15:16:21.689Z,5.65
2022-12-22T15:18:53.134Z,5.68
2022-12-22T15:21:20.777Z,5.72
2022-12-22T15:23:48.690Z,5.74
2022-12-22T15:26:16.494Z,5.76
2022-12-22T15:28:44.160Z,5.79
2022-12-22T15:31:16.695Z,5.81
2022-12-22T15:33:45.323Z,5.82
2022-12-22T15:36:13.954Z,5.84
2022-12-22T15:38:41.648Z,5.84
2022-12-22T15:41:09.328Z,5.86
2022-12-22T15:43:57.082Z,5.88
2022-12-22T15:46:24.925Z,5.91
2022-12-22T15:48:53.017Z,5.93
2022-12-22T15:51:24.341Z,5.96
2022-12-22T15:53:52.129Z,6.00
2022-12-22T15:56:23.395Z,6.03
2022-12-22T15:58:51.335Z,6.05
2022-12-22T16:01:19.122Z,6.07
2022-12-22T16:03:47.027Z,6.09
2022-12-22T16:06:16.623Z,6.11
2022-12-22T16:08:49.465Z,6.14
2022-12-22T16:11:18.366Z,6.16
2022-12-22T16:13:47.228Z,6.19
2022-12-22T16:16:14.986Z,6.18
2022-12-22T16:18:42.796Z,6.19
2022-12-22T16:21:16.939Z,6.18
2022-12-22T16:23:47.064Z,6.18
2022-12-22T16:26:17.407Z,6.16
2022-12-22T16:28:45.118Z,6.17
2022-12-22T16:31:18.915Z,6.17
2022-12-22T16:33:46.808Z,6.16
2022-12-22T16:36:14.865Z,6.15
2022-12-22T16:38:43.541Z,6.13
2022-12-22T16:41:19.462Z,6.12
2022-12-22T16:46:37.768Z,6.09
2022-12-22T16:49:08.088Z,6.12
2022-12-22T16:51:38.279Z,6.17
2022-12-22T16:54:06.221Z,6.21
2022-12-22T16:56:34.887Z,6.23
2022-12-22T16:59:04.522Z,6.25
2022-12-22T17:01:40.340Z,6.25
2022-12-22T17:04:10.845Z,6.25
2022-12-22T17:06:39.540Z,6.23
2022-12-22T17:09:12.998Z,6.22
2022-12-22T17:11:40.651Z,6.21
2022-12-22T17:14:25.723Z,6.22
2022-12-22T17:16:53.485Z,6.21
2022-12-22T17:19:21.696Z,6.21
2022-12-22T17:21:50.053Z,6.21
2022-12-22T17:24:25.872Z,6.20
2022-12-22T17:27:01.990Z,6.19
2022-12-22T17:29:30.072Z,6.20
2022-12-22T17:31:57.755Z,6.20
2022-12-22T17:34:26.484Z,6.20
2022-12-22T17:36:56.710Z,6.20
2022-12-22T17:39:25.629Z,6.22
2022-12-22T17:41:57.107Z,6.23
2022-12-22T17:44:26.849Z,6.23
2022-12-22T17:46:54.894Z,6.22
2022-12-22T17:49:22.928Z,6.24
2022-12-22T17:51:50.713Z,6.24
2022-12-22T17:54:23.475Z,6.26
2022-12-22T17:56:51.600Z,6.25
2022-12-22T17:59:19.344Z,6.25
2022-12-22T18:01:47.180Z,6.24
2022-12-22T18:04:15.315Z,6.24
2022-12-22T18:06:43.091Z,6.23
2022-12-22T18:09:19.408Z,6.21
2022-12-22T18:11:47.893Z,6.22
2022-12-22T18:14:16.268Z,6.22
2022-12-22T18:16:44.065Z,6.21
2022-12-22T18:19:11.846Z,6.22
2022-12-22T18:21:39.857Z,6.22
2022-12-22T18:24:15.815Z,6.23
2022-12-22T18:26:43.622Z,6.24
2022-12-22T18:29:17.203Z,6.27
2022-12-22T18:31:45.265Z,6.30
2022-12-22T18:34:13.089Z,6.32
2022-12-22T18:36:42.452Z,6.35
2022-12-22T18:39:17.925Z,6.35
2022-12-22T18:41:45.986Z,6.35
2022-12-22T18:44:18.120Z,6.34
2022-12-22T18:46:47.313Z,6.33
2022-12-22T18:49:15.482Z,6.32
2022-12-22T18:51:44.710Z,6.30
2022-12-22T18:54:21.809Z,6.28
2022-12-22T18:56:51.938Z,6.25
2022-12-22T18:59:24.940Z,6.23
2022-12-22T19:01:52.954Z,6.21
2022-12-22T19:04:20.841Z,6.19
2022-12-22T19:06:48.501Z,6.18
2022-12-22T19:09:16.239Z,6.18
2022-12-22T19:11:44.096Z,6.19
2022-12-22T19:14:17.115Z,6.20
2022-12-22T19:16:45.778Z,6.19
2022-12-22T19:19:18.954Z,6.19
2022-12-22T19:21:48.729Z,6.18
2022-12-22T19:24:16.589Z,6.18
2022-12-22T19:26:44.290Z,6.17
2022-12-22T19:29:13.970Z,6.18
2022-12-22T19:31:43.346Z,6.18
2022-12-22T19:34:16.727Z,6.19
2022-12-22T19:36:44.571Z,6.20
2022-12-22T19:39:12.247Z,6.21
2022-12-22T19:41:43.765Z,6.22
2022-12-22T19:44:31.763Z,6.23
2022-12-22T19:47:00.161Z,6.23
2022-12-22T19:49:29.312Z,6.23
2022-12-22T19:51:57.832Z,6.24
2022-12-22T19:54:25.559Z,6.24
2022-12-22T19:56:56.674Z,6.26
2022-12-22T19:59:29.627Z,6.26
2022-12-22T20:02:00.536Z,6.23
2022-12-22T20:04:28.606Z,6.19
2022-12-22T20:06:56.431Z,6.18
2022-12-22T20:09:24.161Z,6.17
2022-12-22T20:11:51.769Z,6.14
2022-12-22T20:14:19.556Z,6.12
2022-12-22T20:16:47.386Z,6.11
2022-12-22T20:19:16.018Z,6.09
2022-12-22T20:21:44.121Z,6.07
2022-12-22T20:24:20.341Z,6.06
2022-12-22T20:26:53.804Z,6.06
2022-12-22T20:29:24.359Z,6.04
2022-12-22T20:31:52.327Z,6.02
2022-12-22T20:34:20.603Z,6.03
2022-12-22T20:36:48.350Z,6.02
2022-12-22T20:39:18.363Z,6.03
2022-12-22T20:41:52.583Z,6.03
2022-12-22T20:44:21.548Z,6.02
2022-12-22T20:46:49.258Z,6.02
2022-12-22T20:49:16.913Z,6.03
2022-12-22T20:51:44.621Z,6.03
2022-12-22T20:54:14.784Z,6.04
2022-12-22T20:56:44.107Z,6.04
2022-12-22T20:59:14.699Z,6.05
2022-12-22T21:01:42.553Z,6.05
2022-12-22T21:04:10.325Z,6.06
2022-12-22T21:06:49.397Z,6.07
2022-12-22T21:09:17.772Z,6.07
2022-12-22T21:11:45.976Z,6.09
2022-12-22T21:14:13.736Z,6.11
2022-12-22T21:16:42.238Z,6.12
2022-12-22T21:19:18.832Z,6.13
2022-12-22T21:21:46.960Z,6.14
2022-12-22T21:24:14.654Z,6.16
2022-12-22T21:26:45.955Z,6.17
2022-12-22T21:29:17.029Z,6.18
2022-12-22T21:31:44.657Z,6.18
2022-12-22T21:34:12.301Z,6.18
2022-12-22T21:36:43.604Z,6.18
2022-12-22T21:39:32.743Z,6.21
2022-12-22T21:42:00.430Z,6.19
2022-12-22T21:44:29.302Z,6.19
2022-12-22T21:46:57.139Z,6.21
2022-12-22T21:49:27.675Z,6.22
2022-12-22T21:51:55.568Z,6.22
2022-12-22T21:54:24.793Z,6.21
2022-12-22T21:56:53.600Z,6.21
2022-12-22T21:59:22.196Z,6.20
2022-12-22T22:01:52.780Z,6.19
2022-12-22T22:04:21.015Z,6.18
2022-12-22T22:06:48.904Z,6.17
2022-12-22T22:09:16.623Z,6.16
2022-12-22T22:12:03.073Z,6.15
2022-12-22T22:14:30.842Z,6.13
2022-12-22T22:16:58.495Z,6.12
2022-12-22T22:19:26.107Z,6.12
2022-12-22T22:21:53.731Z,6.12
2022-12-22T22:24:21.400Z,6.12
2022-12-22T22:26:51.526Z,6.12
2022-12-22T22:29:19.283Z,6.13
2022-12-22T22:31:46.951Z,6.13
2022-12-22T22:34:15.671Z,6.13
2022-12-22T22:36:43.325Z,6.12
2022-12-22T22:39:11.026Z,6.13
2022-12-22T22:41:43.312Z,6.12
2022-12-22T22:44:12.151Z,6.12
2022-12-22T22:46:40.621Z,6.12
2022-12-22T22:49:09.202Z,6.12
2022-12-22T22:51:37.101Z,6.12
2022-12-22T22:54:04.811Z,6.13
2022-12-22T22:56:32.477Z,6.13
2022-12-22T22:59:00.110Z,6.13
2022-12-22T23:01:27.891Z,6.14
2022-12-22T23:03:55.754Z,6.13
2022-12-22T23:06:23.533Z,6.14
2022-12-22T23:08:51.313Z,6.13
2022-12-22T23:11:19.001Z,6.12
2022-12-22T23:13:46.943Z,6.14
2022-12-22T23:16:14.873Z,6.14
2022-12-22T23:18:42.656Z,6.16
2022-12-22T23:21:11.183Z,6.16
2022-12-22T23:23:38.853Z,6.16
2022-12-22T23:26:06.696Z,6.16
2022-12-22T23:28:34.400Z,6.15
2022-12-22T23:31:02.355Z,6.16
2022-12-22T23:33:33.127Z,6.17
2022-12-22T23:36:00.865Z,6.18
2022-12-22T23:38:28.576Z,6.19
2022-12-22T23:41:04.474Z,6.20
2022-12-22T23:43:32.340Z,6.21
2022-12-22T23:46:00.179Z,6.21
2022-12-22T23:48:27.935Z,6.22
2022-12-22T23:50:55.604Z,6.23
2022-12-22T23:53:23.243Z,6.23
2022-12-22T23:55:51.012Z,6.24
2022-12-22T23:58:18.663Z,6.25
